createdAt,value
2023-12-16T00:02:22.149Z,2.30
2023-12-16T00:04:55.408Z,2.28
2023-12-16T00:07:27.986Z,2.30
2023-12-16T00:10:00.640Z,2.10
2023-12-16T00:12:33.787Z,1.98
2023-12-16T00:15:10.972Z,2.00
2023-12-16T00:17:44.152Z,2.42
2023-12-16T00:20:17.138Z,2.20
2023-12-16T00:22:49.687Z,2.35
2023-12-16T00:25:22.484Z,2.20
2023-12-16T00:27:55.160Z,1.83
2023-12-16T00:30:27.844Z,2.10
2023-12-16T00:33:00.639Z,2.00
2023-12-16T00:35:33.304Z,2.47
2023-12-16T00:38:06.061Z,2.00
2023-12-16T00:40:38.785Z,2.20
2023-12-16T00:43:11.470Z,1.88
2023-12-16T00:45:44.087Z,2.40
2023-12-16T00:48:16.854Z,2.28
2023-12-16T00:50:49.659Z,2.28
2023-12-16T00:53:22.620Z,2.03
2023-12-16T00:55:55.223Z,2.10
2023-12-16T00:58:28.000Z,1.90
2023-12-16T01:01:00.813Z,2.17
2023-12-16T01:03:33.441Z,1.90
2023-12-16T01:06:06.190Z,2.10
2023-12-16T01:08:38.980Z,2.40
2023-12-16T01:11:15.673Z,1.90
2023-12-16T01:13:48.285Z,1.80
2023-12-16T01:16:21.153Z,2.28
2023-12-16T01:18:53.921Z,2.05
2023-12-16T01:21:27.015Z,1.90
2023-12-16T01:23:59.606Z,1.70
2023-12-16T01:26:32.250Z,2.20
2023-12-16T01:29:04.880Z,1.98
2023-12-16T01:31:37.835Z,1.73
2023-12-16T01:34:10.582Z,1.90
2023-12-16T01:36:43.324Z,1.80
2023-12-16T01:39:16.044Z,1.55
2023-12-16T01:41:48.695Z,2.00
2023-12-16T01:44:21.227Z,1.48
2023-12-16T01:46:54.506Z,1.60
2023-12-16T01:49:27.399Z,1.63
2023-12-16T01:52:00.203Z,1.70
2023-12-16T01:54:34.830Z,1.33
2023-12-16T01:57:09.317Z,1.70
2023-12-16T01:59:42.389Z,1.80
2023-12-16T02:02:15.773Z,1.80
2023-12-16T02:04:49.438Z,1.83
2023-12-16T02:07:22.263Z,1.75
2023-12-16T02:09:56.548Z,1.60
2023-12-16T02:12:29.285Z,1.80
2023-12-16T02:15:03.602Z,1.48
2023-12-16T02:17:37.045Z,1.45
2023-12-16T02:20:11.342Z,1.70
2023-12-16T02:25:20.134Z,1.77
2023-12-16T02:27:52.918Z,1.90
2023-12-16T02:30:25.614Z,1.80
2023-12-16T02:32:58.482Z,1.70
2023-12-16T02:35:31.088Z,1.70
2023-12-16T02:38:03.860Z,2.03
2023-12-16T02:40:42.481Z,1.48
2023-12-16T02:43:15.150Z,1.70
2023-12-16T02:45:48.065Z,1.75
2023-12-16T02:48:20.898Z,1.48
2023-12-16T02:50:53.573Z,1.55
2023-12-16T02:53:27.154Z,1.45
2023-12-16T02:56:00.036Z,1.45
2023-12-16T02:58:32.609Z,1.20
2023-12-16T03:01:05.378Z,1.40
2023-12-16T03:03:39.482Z,1.60
2023-12-16T03:06:12.295Z,1.80
2023-12-16T03:08:44.919Z,1.40
2023-12-16T03:11:17.753Z,1.52
2023-12-16T03:13:50.361Z,1.40
2023-12-16T03:16:22.968Z,1.50
2023-12-16T03:18:55.659Z,1.40
2023-12-16T03:21:28.390Z,1.50
2023-12-16T03:24:00.972Z,1.50
2023-12-16T03:26:33.640Z,1.40
2023-12-16T03:29:06.343Z,1.42
2023-12-16T03:31:39.018Z,1.50
2023-12-16T03:34:11.701Z,1.40
2023-12-16T03:36:44.624Z,1.40
2023-12-16T03:39:17.438Z,1.35
2023-12-16T03:41:50.218Z,1.70
2023-12-16T03:44:22.892Z,1.48
2023-12-16T03:46:55.610Z,1.60
2023-12-16T03:49:29.774Z,1.50
2023-12-16T03:52:02.542Z,1.42
2023-12-16T03:54:36.536Z,1.63
2023-12-16T03:57:09.331Z,1.73
2023-12-16T03:59:42.060Z,1.40
2023-12-16T04:02:14.696Z,1.80
2023-12-16T04:04:47.408Z,1.60
2023-12-16T04:07:20.015Z,1.40
2023-12-16T04:09:53.124Z,1.50
2023-12-16T04:12:25.855Z,1.67
2023-12-16T04:14:58.937Z,1.40
2023-12-16T04:17:31.805Z,1.60
2023-12-16T04:20:04.957Z,1.40
2023-12-16T04:22:38.316Z,1.55
2023-12-16T04:25:12.428Z,1.50
2023-12-16T04:27:45.223Z,1.42
2023-12-16T04:30:18.063Z,1.80
2023-12-16T04:32:50.816Z,1.55
2023-12-16T04:35:23.407Z,1.60
2023-12-16T04:37:56.012Z,1.55
2023-12-16T04:40:29.026Z,1.10
2023-12-16T04:43:01.686Z,1.25
2023-12-16T04:45:36.649Z,1.35
2023-12-16T04:48:09.379Z,1.40
2023-12-16T04:50:42.552Z,1.23
2023-12-16T04:53:15.162Z,1.60
2023-12-16T04:55:50.565Z,1.35
2023-12-16T04:58:24.692Z,1.90
2023-12-16T05:00:58.690Z,1.50
2023-12-16T05:03:35.395Z,1.65
2023-12-16T05:06:09.353Z,1.60
2023-12-16T05:08:42.080Z,1.90
2023-12-16T05:11:14.923Z,1.38
2023-12-16T05:13:47.515Z,1.73
2023-12-16T05:16:21.175Z,1.17
2023-12-16T05:18:53.814Z,1.50
2023-12-16T05:21:26.427Z,1.42
2023-12-16T05:23:59.177Z,1.50
2023-12-16T05:26:31.835Z,1.50
2023-12-16T05:29:05.157Z,1.67
2023-12-16T05:31:37.886Z,1.60
2023-12-16T05:34:11.795Z,1.60
2023-12-16T05:36:44.819Z,1.38
2023-12-16T05:39:17.487Z,1.58
2023-12-16T05:41:50.810Z,1.55
2023-12-16T05:44:23.333Z,1.67
2023-12-16T05:46:55.916Z,1.50
2023-12-16T05:49:28.856Z,1.55
2023-12-16T05:52:02.033Z,1.40
2023-12-16T05:54:34.969Z,1.40
2023-12-16T05:57:07.662Z,1.48
2023-12-16T05:59:40.533Z,1.58
2023-12-16T06:02:13.224Z,1.40
2023-12-16T06:04:46.266Z,1.50
2023-12-16T06:07:20.957Z,1.40
2023-12-16T06:09:53.688Z,1.50
2023-12-16T06:12:26.334Z,1.58
2023-12-16T06:14:59.198Z,1.33
2023-12-16T06:17:32.226Z,1.30
2023-12-16T06:20:06.313Z,1.60
2023-12-16T06:22:39.057Z,1.23
2023-12-16T06:25:11.890Z,1.30
2023-12-16T06:27:45.420Z,1.27
2023-12-16T06:30:18.149Z,1.45
2023-12-16T06:32:50.783Z,1.40
2023-12-16T06:35:23.346Z,1.38
2023-12-16T06:37:56.007Z,1.52
2023-12-16T06:40:28.788Z,1.58
2023-12-16T06:43:01.616Z,1.20
2023-12-16T06:45:34.793Z,1.77
2023-12-16T06:48:07.549Z,1.40
2023-12-16T06:50:40.374Z,1.20
2023-12-16T06:53:13.058Z,1.20
2023-12-16T06:55:45.811Z,1.10
2023-12-16T06:58:18.616Z,1.10
2023-12-16T07:00:51.268Z,1.30
2023-12-16T07:03:24.001Z,1.40
2023-12-16T07:05:56.905Z,1.20
2023-12-16T07:08:29.478Z,1.50
2023-12-16T07:11:04.970Z,1.25
2023-12-16T07:13:37.560Z,1.30
2023-12-16T07:16:10.841Z,1.33
2023-12-16T07:18:43.971Z,1.20
2023-12-16T07:21:16.581Z,1.45
2023-12-16T07:23:49.138Z,1.20
2023-12-16T07:26:21.980Z,1.40
2023-12-16T07:28:54.732Z,1.40
2023-12-16T07:31:27.568Z,1.30
2023-12-16T07:34:00.468Z,1.27
2023-12-16T07:36:33.710Z,1.10
2023-12-16T07:39:06.540Z,1.50
2023-12-16T07:41:39.233Z,1.30
2023-12-16T07:44:14.568Z,1.20
2023-12-16T07:46:47.167Z,1.20
2023-12-16T07:49:23.792Z,1.30
2023-12-16T07:51:58.507Z,1.30
2023-12-16T07:54:33.393Z,1.20
2023-12-16T07:57:06.029Z,1.30
2023-12-16T07:59:41.678Z,1.30
2023-12-16T08:02:14.484Z,1.20
2023-12-16T08:04:47.137Z,0.90
2023-12-16T08:07:21.237Z,1.17
2023-12-16T08:12:26.587Z,1.08
2023-12-16T08:14:59.289Z,1.20
2023-12-16T08:17:32.002Z,1.30
2023-12-16T08:20:06.865Z,1.20
2023-12-16T08:22:41.034Z,1.33
2023-12-16T08:25:13.722Z,1.20
2023-12-16T08:27:46.378Z,1.00
2023-12-16T08:30:19.175Z,1.38
2023-12-16T08:32:51.980Z,1.40
2023-12-16T08:35:24.840Z,1.40
2023-12-16T08:37:58.292Z,1.17
2023-12-16T08:40:31.874Z,1.02
2023-12-16T08:43:04.551Z,1.25
2023-12-16T08:45:37.353Z,1.40
2023-12-16T08:48:09.994Z,1.15
2023-12-16T08:50:43.352Z,1.15
2023-12-16T08:53:15.993Z,1.23
2023-12-16T08:55:48.810Z,1.40
2023-12-16T08:58:21.524Z,1.13
2023-12-16T09:00:55.041Z,1.40
2023-12-16T09:03:27.722Z,1.50
2023-12-16T09:06:00.529Z,1.60
2023-12-16T09:08:33.352Z,1.38
2023-12-16T09:11:06.372Z,1.30
2023-12-16T09:13:39.406Z,1.13
2023-12-16T09:16:12.064Z,1.60
2023-12-16T09:18:44.747Z,1.17
2023-12-16T09:21:17.366Z,1.48
2023-12-16T09:23:50.157Z,1.13
2023-12-16T09:26:25.287Z,1.27
2023-12-16T09:28:58.163Z,1.17
2023-12-16T09:31:30.900Z,1.30
2023-12-16T09:34:03.932Z,1.10
2023-12-16T09:36:36.596Z,1.40
2023-12-16T09:39:11.276Z,1.33
2023-12-16T09:41:45.836Z,1.30
2023-12-16T09:44:21.430Z,1.27
2023-12-16T09:46:55.064Z,1.40
2023-12-16T09:49:30.888Z,1.30
2023-12-16T09:52:03.992Z,1.35
2023-12-16T09:54:39.682Z,1.35
2023-12-16T09:57:16.905Z,0.93
2023-12-16T09:59:52.742Z,1.20
2023-12-16T10:02:29.137Z,1.20
2023-12-16T10:05:03.066Z,1.30
2023-12-16T10:07:36.450Z,1.45
2023-12-16T10:10:10.076Z,1.23
2023-12-16T10:12:42.886Z,1.20
2023-12-16T10:15:33.969Z,1.33
2023-12-16T10:18:07.550Z,1.10
2023-12-16T10:20:40.206Z,1.30
2023-12-16T10:23:16.330Z,1.20
2023-12-16T10:25:49.026Z,1.08
2023-12-16T10:28:21.689Z,1.10
2023-12-16T10:30:54.506Z,1.08
2023-12-16T10:33:28.706Z,1.20
2023-12-16T10:36:01.325Z,1.13
2023-12-16T10:38:33.951Z,1.55
2023-12-16T10:41:06.766Z,1.08
2023-12-16T10:43:39.553Z,1.27
2023-12-16T10:46:18.780Z,1.40
2023-12-16T10:48:58.035Z,1.10
2023-12-16T10:51:37.330Z,1.30
2023-12-16T10:54:28.720Z,1.17
2023-12-16T10:57:32.467Z,1.40
2023-12-16T11:00:07.791Z,1.73
2023-12-16T11:03:13.358Z,1.40
2023-12-16T11:06:14.934Z,1.15
2023-12-16T11:08:50.192Z,1.38
2023-12-16T11:11:23.456Z,1.17
2023-12-16T11:13:57.292Z,1.30
2023-12-16T11:17:12.334Z,1.63
2023-12-16T11:20:01.079Z,1.10
2023-12-16T11:22:34.355Z,1.48
2023-12-16T11:25:18.965Z,1.15
2023-12-16T11:27:53.470Z,1.20
2023-12-16T11:30:30.643Z,1.30
2023-12-16T11:33:05.277Z,1.38
2023-12-16T11:35:40.806Z,1.02
2023-12-16T11:38:43.105Z,1.40
2023-12-16T11:41:37.094Z,1.27
2023-12-16T11:44:10.122Z,1.13
2023-12-16T11:46:44.353Z,1.02
2023-12-16T11:49:17.382Z,1.20
2023-12-16T11:51:50.210Z,1.20
2023-12-16T11:54:22.879Z,1.20
2023-12-16T11:56:55.487Z,1.02
2023-12-16T11:59:28.076Z,1.40
2023-12-16T12:02:00.788Z,1.20
2023-12-16T12:04:33.866Z,1.45
2023-12-16T12:07:08.280Z,1.20
2023-12-16T12:09:44.144Z,1.30
2023-12-16T12:12:17.950Z,1.00
2023-12-16T12:14:50.764Z,1.30
2023-12-16T12:17:23.508Z,1.30
2023-12-16T12:19:57.185Z,1.50
2023-12-16T12:22:32.980Z,1.38
2023-12-16T12:25:06.361Z,1.52
2023-12-16T12:27:39.237Z,1.20
2023-12-16T12:30:19.861Z,1.17
2023-12-16T12:32:52.841Z,1.10
2023-12-16T12:35:25.723Z,1.27
2023-12-16T12:37:58.960Z,1.05
2023-12-16T12:40:31.770Z,1.30
2023-12-16T12:43:04.382Z,1.20
2023-12-16T12:45:37.896Z,1.10
2023-12-16T12:48:18.213Z,1.30
2023-12-16T12:51:13.796Z,1.20
2023-12-16T12:53:58.248Z,1.10
2023-12-16T12:56:32.148Z,1.13
2023-12-16T12:59:57.024Z,1.10
2023-12-16T13:01:57.428Z,1.00
2023-12-16T13:04:29.990Z,1.10
2023-12-16T13:07:02.704Z,1.23
2023-12-16T13:09:35.322Z,1.20
2023-12-16T13:12:07.975Z,1.20
2023-12-16T13:14:46.802Z,1.17
2023-12-16T13:17:20.960Z,1.30
2023-12-16T13:22:26.199Z,1.17
2023-12-16T13:24:58.774Z,1.05
2023-12-16T13:27:31.319Z,1.33
2023-12-16T13:30:06.033Z,1.25
2023-12-16T13:32:39.631Z,1.00
2023-12-16T13:35:12.401Z,1.30
2023-12-16T13:37:44.968Z,0.98
2023-12-16T13:40:17.597Z,1.20
2023-12-16T13:42:50.431Z,1.25
2023-12-16T13:45:23.049Z,1.40
2023-12-16T13:47:55.936Z,1.38
2023-12-16T13:50:28.572Z,1.30
2023-12-16T13:53:01.171Z,1.20
2023-12-16T13:55:33.788Z,1.20
2023-12-16T13:58:06.319Z,1.40
2023-12-16T14:00:38.894Z,1.40
2023-12-16T14:03:11.711Z,1.20
2023-12-16T14:05:44.528Z,1.30
2023-12-16T14:08:17.322Z,1.65
2023-12-16T14:10:50.274Z,1.20
2023-12-16T14:13:24.129Z,1.30
2023-12-16T14:15:57.238Z,1.35
2023-12-16T14:18:31.291Z,1.10
2023-12-16T14:21:04.318Z,1.02
2023-12-16T14:23:37.050Z,1.23
2023-12-16T14:26:09.872Z,1.45
2023-12-16T14:28:42.684Z,1.50
2023-12-16T14:31:15.386Z,1.10
2023-12-16T14:33:48.244Z,1.20
2023-12-16T14:36:21.120Z,1.00
2023-12-16T14:38:55.556Z,1.10
2023-12-16T14:41:28.326Z,1.15
2023-12-16T14:44:00.921Z,1.02
2023-12-16T14:46:33.566Z,1.30
2023-12-16T14:49:06.358Z,1.48
2023-12-16T14:51:40.248Z,1.40
2023-12-16T14:54:13.001Z,1.10
2023-12-16T14:56:45.665Z,1.55
2023-12-16T14:59:18.822Z,1.10
2023-12-16T15:01:51.513Z,1.20
2023-12-16T15:04:24.093Z,1.20
2023-12-16T15:07:01.512Z,1.00
2023-12-16T15:09:34.614Z,1.00
2023-12-16T15:12:07.618Z,1.10
2023-12-16T15:14:40.292Z,1.30
2023-12-16T15:17:13.333Z,1.23
2023-12-16T15:19:46.045Z,1.40
2023-12-16T15:22:18.663Z,1.30
2023-12-16T15:24:51.231Z,0.90
2023-12-16T15:27:23.852Z,1.25
2023-12-16T15:29:56.652Z,1.38
2023-12-16T15:32:29.383Z,1.05
2023-12-16T15:35:02.230Z,1.20
2023-12-16T15:37:34.846Z,1.17
2023-12-16T15:40:10.492Z,1.50
2023-12-16T15:42:43.667Z,1.05
2023-12-16T15:45:16.476Z,1.27
2023-12-16T15:47:49.325Z,1.20
2023-12-16T15:50:22.359Z,1.60
2023-12-16T15:52:55.132Z,1.17
2023-12-16T15:55:28.016Z,1.40
2023-12-16T15:58:00.684Z,1.40
2023-12-16T16:00:33.409Z,1.65
2023-12-16T16:03:06.130Z,1.52
2023-12-16T16:05:38.861Z,1.40
2023-12-16T16:08:12.014Z,1.25
2023-12-16T16:10:46.476Z,1.60
2023-12-16T16:13:19.310Z,1.65
2023-12-16T16:15:52.301Z,1.60
2023-12-16T16:18:25.426Z,1.35
2023-12-16T16:20:58.746Z,1.40
2023-12-16T16:23:31.972Z,1.60
2023-12-16T16:26:06.665Z,1.40
2023-12-16T16:28:39.349Z,1.50
2023-12-16T16:31:12.110Z,1.70
2023-12-16T16:33:46.250Z,1.30
2023-12-16T16:36:18.984Z,1.67
2023-12-16T16:38:54.825Z,1.48
2023-12-16T16:41:27.424Z,1.38
2023-12-16T16:44:00.888Z,1.30
2023-12-16T16:46:33.491Z,1.63
2023-12-16T16:49:08.750Z,1.65
2023-12-16T16:51:42.083Z,1.10
2023-12-16T16:54:18.249Z,1.48
2023-12-16T16:56:50.923Z,1.40
2023-12-16T16:59:25.238Z,1.40
2023-12-16T17:01:57.935Z,1.20
2023-12-16T17:04:30.597Z,1.58
2023-12-16T17:07:03.502Z,1.42
2023-12-16T17:09:36.261Z,1.80
2023-12-16T17:12:09.981Z,1.65
2023-12-16T17:14:43.286Z,1.55
2023-12-16T17:17:16.269Z,1.40
2023-12-16T17:19:49.257Z,1.30
2023-12-16T17:22:22.126Z,1.38
2023-12-16T17:24:58.060Z,1.10
2023-12-16T17:27:30.793Z,1.20
2023-12-16T17:30:04.100Z,1.40
2023-12-16T17:32:37.069Z,1.30
2023-12-16T17:35:09.779Z,1.38
2023-12-16T17:37:42.591Z,1.50
2023-12-16T17:40:15.903Z,1.23
2023-12-16T17:42:49.579Z,1.30
2023-12-16T17:45:22.186Z,1.48
2023-12-16T17:47:55.761Z,1.60
2023-12-16T17:50:28.436Z,1.30
2023-12-16T17:53:01.619Z,1.45
2023-12-16T17:55:35.038Z,1.60
2023-12-16T17:58:09.155Z,1.40
2023-12-16T18:03:15.637Z,1.25
2023-12-16T18:05:49.204Z,1.50
2023-12-16T18:08:21.802Z,1.30
2023-12-16T18:10:54.465Z,1.60
2023-12-16T18:13:27.448Z,1.35
2023-12-16T18:18:36.251Z,1.50
2023-12-16T18:21:10.548Z,1.38
2023-12-16T18:23:44.001Z,1.33
2023-12-16T18:26:16.709Z,1.35
2023-12-16T18:28:49.473Z,1.40
2023-12-16T18:31:22.245Z,1.30
2023-12-16T18:33:55.098Z,1.30
2023-12-16T18:36:30.124Z,1.35
2023-12-16T18:39:03.326Z,1.35
2023-12-16T18:41:36.200Z,1.17
2023-12-16T18:44:08.824Z,1.30
2023-12-16T18:46:41.533Z,1.30
2023-12-16T18:49:14.603Z,1.48
2023-12-16T18:51:47.378Z,1.50
2023-12-16T18:54:20.300Z,1.42
2023-12-16T18:56:53.075Z,1.35
2023-12-16T18:59:25.672Z,1.42
2023-12-16T19:01:58.484Z,1.40
2023-12-16T19:04:31.283Z,1.17
2023-12-16T19:07:04.278Z,1.55
2023-12-16T19:09:38.502Z,1.30
2023-12-16T19:12:11.982Z,1.80
2023-12-16T19:14:45.008Z,1.35
2023-12-16T19:17:17.834Z,1.40
2023-12-16T19:19:50.677Z,1.67
2023-12-16T19:22:23.497Z,1.50
2023-12-16T19:24:56.118Z,1.60
2023-12-16T19:27:30.004Z,1.55
2023-12-16T19:30:03.671Z,1.35
2023-12-16T19:32:36.821Z,1.40
2023-12-16T19:35:09.617Z,1.40
2023-12-16T19:37:42.633Z,1.40
2023-12-16T19:40:15.584Z,1.52
2023-12-16T19:42:48.412Z,1.48
2023-12-16T19:45:20.987Z,1.55
2023-12-16T19:47:53.807Z,1.40
2023-12-16T19:50:26.596Z,1.45
2023-12-16T19:53:09.338Z,1.42
2023-12-16T19:55:41.929Z,1.70
2023-12-16T19:58:14.670Z,1.52
2023-12-16T20:00:47.294Z,1.50
2023-12-16T20:03:20.275Z,1.50
2023-12-16T20:05:53.120Z,1.45
2023-12-16T20:08:28.525Z,1.50
2023-12-16T20:11:01.082Z,1.50
2023-12-16T20:13:34.734Z,1.38
2023-12-16T20:16:07.828Z,1.50
2023-12-16T20:18:40.676Z,1.60
2023-12-16T20:21:13.329Z,1.58
2023-12-16T20:23:45.923Z,1.67
2023-12-16T20:26:18.752Z,1.45
2023-12-16T20:28:52.018Z,1.50
2023-12-16T20:31:25.104Z,1.60
2023-12-16T20:33:58.196Z,1.63
2023-12-16T20:36:33.288Z,1.98
2023-12-16T20:39:24.941Z,1.55
2023-12-16T20:41:57.657Z,1.60
2023-12-16T20:44:30.357Z,1.52
2023-12-16T20:47:03.120Z,1.60
2023-12-16T20:49:35.845Z,1.67
2023-12-16T20:52:08.625Z,1.50
2023-12-16T20:54:41.409Z,1.63
2023-12-16T20:57:14.043Z,1.70
2023-12-16T20:59:46.609Z,1.50
2023-12-16T21:02:19.242Z,1.50
2023-12-16T21:04:51.860Z,1.42
2023-12-16T21:07:24.507Z,1.60
2023-12-16T21:09:57.081Z,1.60
2023-12-16T21:12:29.809Z,1.40
2023-12-16T21:15:08.164Z,1.83
2023-12-16T21:17:41.038Z,1.50
2023-12-16T21:20:14.064Z,1.60
2023-12-16T21:22:46.726Z,1.42
2023-12-16T21:25:20.983Z,1.75
2023-12-16T21:27:54.544Z,1.55
2023-12-16T21:30:27.885Z,1.70
2023-12-16T21:33:00.649Z,1.67
2023-12-16T21:35:33.265Z,1.65
2023-12-16T21:38:07.365Z,1.50
2023-12-16T21:43:12.908Z,1.35
2023-12-16T21:45:45.440Z,1.50
2023-12-16T21:48:18.246Z,1.48
2023-12-16T21:50:51.160Z,1.85
2023-12-16T21:53:23.956Z,1.67
2023-12-16T21:55:56.654Z,1.60
2023-12-16T21:58:29.297Z,1.67
2023-12-16T22:01:02.036Z,1.67
2023-12-16T22:03:35.693Z,1.55
2023-12-16T22:06:09.478Z,1.50
2023-12-16T22:08:49.776Z,1.45
2023-12-16T22:11:28.570Z,1.65
2023-12-16T22:14:01.455Z,1.65
2023-12-16T22:16:34.243Z,1.23
2023-12-16T22:19:09.409Z,1.60
2023-12-16T22:21:42.058Z,1.48
2023-12-16T22:24:14.806Z,1.50
2023-12-16T22:26:48.271Z,1.70
2023-12-16T22:29:20.975Z,1.70
2023-12-16T22:31:54.489Z,1.80
2023-12-16T22:34:27.216Z,1.70
2023-12-16T22:36:59.905Z,1.60
2023-12-16T22:39:32.464Z,1.60
2023-12-16T22:42:05.257Z,1.45
2023-12-16T22:44:37.990Z,1.50
2023-12-16T22:47:11.444Z,1.75
2023-12-16T22:49:44.268Z,1.73
2023-12-16T22:52:17.147Z,1.73
2023-12-16T22:54:50.007Z,1.60
2023-12-16T22:57:23.202Z,1.48
2023-12-16T22:59:56.381Z,1.60
2023-12-16T23:02:30.426Z,1.30
2023-12-16T23:07:38.342Z,1.33
2023-12-16T23:10:15.348Z,1.55
2023-12-16T23:12:51.566Z,1.45
2023-12-16T23:15:24.524Z,1.35
2023-12-16T23:17:57.399Z,1.65
2023-12-16T23:20:30.217Z,1.75
2023-12-16T23:23:03.100Z,1.60
2023-12-16T23:25:35.699Z,1.45
2023-12-16T23:28:08.266Z,1.98
2023-12-16T23:30:40.968Z,1.70
2023-12-16T23:33:13.820Z,1.60
2023-12-16T23:35:46.513Z,1.42
2023-12-16T23:38:19.268Z,1.60
2023-12-16T23:40:51.975Z,1.42
2023-12-16T23:43:24.726Z,1.52
2023-12-16T23:45:57.375Z,1.55
2023-12-16T23:48:30.102Z,1.73
2023-12-16T23:51:02.827Z,1.60
2023-12-16T23:53:36.020Z,1.80
2023-12-16T23:56:09.327Z,1.67
2023-12-16T23:58:42.480Z,1.60
